createdAt,value
2023-02-14T00:00:23.737Z,24.00
2023-02-14T00:03:16.516Z,23.30
2023-02-14T00:05:45.784Z,28.80
2023-02-14T00:08:16.665Z,30.20
2023-02-14T00:10:46.796Z,25.90
2023-02-14T00:13:17.294Z,28.60
2023-02-14T00:15:47.483Z,30.20
2023-02-14T00:18:19.830Z,26.70
2023-02-14T00:20:48.954Z,25.80
2023-02-14T00:23:18.542Z,26.50
2023-02-14T00:25:47.923Z,29.30
2023-02-14T00:28:17.950Z,33.90
2023-02-14T00:30:49.333Z,25.70
2023-02-14T00:33:19.483Z,26.90
2023-02-14T00:35:49.772Z,27.00
2023-02-14T00:38:20.029Z,26.70
2023-02-14T00:40:49.491Z,27.90
2023-02-14T00:43:20.702Z,27.70
2023-02-14T00:45:50.697Z,22.40
2023-02-14T00:48:20.084Z,25.00
2023-02-14T00:50:50.699Z,27.20
2023-02-14T00:53:20.681Z,25.10
2023-02-14T00:55:51.330Z,26.80
2023-02-14T00:58:20.718Z,24.00
2023-02-14T01:00:50.222Z,23.90
2023-02-14T01:03:20.749Z,23.10
2023-02-14T01:05:50.789Z,24.50
2023-02-14T01:08:21.476Z,27.20
2023-02-14T01:10:52.520Z,24.20
2023-02-14T01:13:23.101Z,21.10
2023-02-14T01:15:53.961Z,22.00
2023-02-14T01:18:23.760Z,21.60
2023-02-14T01:20:53.401Z,22.90
2023-02-14T01:23:24.225Z,24.90
2023-02-14T01:25:54.528Z,23.60
2023-02-14T01:28:25.045Z,23.40
2023-02-14T01:30:55.726Z,24.90
2023-02-14T01:33:26.092Z,26.30
2023-02-14T01:35:56.268Z,23.00
2023-02-14T01:38:25.550Z,21.40
2023-02-14T01:40:56.156Z,23.90
2023-02-14T01:43:26.896Z,21.90
2023-02-14T01:45:56.727Z,26.90
2023-02-14T01:48:26.314Z,22.80
2023-02-14T01:51:00.363Z,20.30
2023-02-14T01:53:31.132Z,19.90
2023-02-14T01:56:08.785Z,25.90
2023-02-14T01:58:45.391Z,22.70
2023-02-14T02:01:18.205Z,22.40
2023-02-14T02:03:56.856Z,25.60
2023-02-14T02:06:36.474Z,19.80
2023-02-14T02:09:25.664Z,23.00
2023-02-14T02:11:56.451Z,24.30
2023-02-14T02:14:26.760Z,23.60
2023-02-14T02:17:11.736Z,26.40
2023-02-14T02:20:19.512Z,21.20
2023-02-14T02:22:51.838Z,22.10
2023-02-14T02:25:33.816Z,21.80
2023-02-14T02:28:04.032Z,28.10
2023-02-14T02:30:39.996Z,27.00
2023-02-14T02:34:06.306Z,27.10
2023-02-14T02:36:49.223Z,28.70
2023-02-14T02:39:43.054Z,29.30
2023-02-14T02:42:34.815Z,25.10
2023-02-14T02:46:08.829Z,24.90
2023-02-14T02:48:51.617Z,23.30
2023-02-14T02:51:54.949Z,24.50
2023-02-14T02:54:37.542Z,27.10
2023-02-14T02:57:16.516Z,23.20
2023-02-14T02:59:50.388Z,25.70
2023-02-14T03:02:28.973Z,22.90
2023-02-14T03:05:05.312Z,22.20
2023-02-14T03:07:40.654Z,21.20
2023-02-14T03:10:24.337Z,24.70
2023-02-14T03:13:12.709Z,23.40
2023-02-14T03:16:14.339Z,23.40
2023-02-14T03:18:59.657Z,22.50
2023-02-14T03:21:56.298Z,23.80
2023-02-14T03:24:52.890Z,23.90
2023-02-14T03:27:27.818Z,17.80
2023-02-14T03:30:04.361Z,24.10
2023-02-14T03:32:50.748Z,20.00
2023-02-14T03:35:32.907Z,18.80
2023-02-14T03:38:15.756Z,22.70
2023-02-14T03:40:58.676Z,19.50
2023-02-14T03:43:35.011Z,22.80
2023-02-14T03:46:11.080Z,20.10
2023-02-14T03:48:43.288Z,20.80
2023-02-14T03:51:16.256Z,19.50
2023-02-14T03:53:49.089Z,23.60
2023-02-14T03:57:13.290Z,19.80
2023-02-14T03:59:43.685Z,21.90
2023-02-14T04:02:21.821Z,15.20
2023-02-14T04:04:54.875Z,19.00
2023-02-14T04:07:26.476Z,21.00
2023-02-14T04:09:56.802Z,23.20
2023-02-14T04:12:37.445Z,20.30
2023-02-14T04:15:09.299Z,21.50
2023-02-14T04:17:58.576Z,24.40
2023-02-14T04:20:29.015Z,20.40
2023-02-14T04:22:58.915Z,25.30
2023-02-14T04:25:29.035Z,19.10
2023-02-14T04:27:59.345Z,20.50
2023-02-14T04:30:29.495Z,20.70
2023-02-14T04:32:59.036Z,20.00
2023-02-14T04:35:28.462Z,14.30
2023-02-14T04:38:04.384Z,22.90
2023-02-14T04:40:34.090Z,23.80
2023-02-14T04:43:05.283Z,19.80
2023-02-14T04:45:37.122Z,23.60
2023-02-14T04:48:07.428Z,20.50
2023-02-14T04:50:37.292Z,21.10
2023-02-14T04:53:07.681Z,21.60
2023-02-14T04:55:38.466Z,19.50
2023-02-14T04:58:12.308Z,23.00
2023-02-14T05:00:42.803Z,20.90
2023-02-14T05:03:12.974Z,19.10
2023-02-14T05:05:42.625Z,23.20
2023-02-14T05:08:15.012Z,20.10
2023-02-14T05:10:46.021Z,24.20
2023-02-14T05:13:16.401Z,20.60
2023-02-14T05:15:47.533Z,21.70
2023-02-14T05:18:18.283Z,19.70
2023-02-14T05:20:52.912Z,18.40
2023-02-14T05:23:23.460Z,22.60
2023-02-14T05:25:53.922Z,19.80
2023-02-14T05:28:30.889Z,19.00
2023-02-14T05:31:02.570Z,21.90
2023-02-14T05:33:33.038Z,23.80
2023-02-14T05:36:04.470Z,19.90
2023-02-14T05:38:35.691Z,19.80
2023-02-14T05:41:05.793Z,20.20
2023-02-14T05:43:36.230Z,19.00
2023-02-14T05:46:06.613Z,23.90
2023-02-14T05:48:35.868Z,20.00
2023-02-14T05:51:11.175Z,20.10
2023-02-14T05:53:41.542Z,11.40
2023-02-14T05:56:12.124Z,17.50
2023-02-14T05:58:42.036Z,19.80
2023-02-14T06:01:13.747Z,16.30
2023-02-14T06:03:43.870Z,16.90
2023-02-14T06:06:15.627Z,15.90
2023-02-14T06:08:45.141Z,14.70
2023-02-14T06:11:14.857Z,15.00
2023-02-14T06:13:47.631Z,15.50
2023-02-14T06:16:17.840Z,23.50
2023-02-14T06:18:47.141Z,21.50
2023-02-14T06:21:16.704Z,15.30
2023-02-14T06:23:46.189Z,14.60
2023-02-14T06:26:15.696Z,17.60
2023-02-14T06:28:45.979Z,18.50
2023-02-14T06:31:18.313Z,17.70
2023-02-14T06:33:48.918Z,14.50
2023-02-14T06:36:20.767Z,14.30
2023-02-14T06:38:51.935Z,11.70
2023-02-14T06:41:23.166Z,14.60
2023-02-14T06:43:55.099Z,12.40
2023-02-14T06:46:25.690Z,14.10
2023-02-14T06:48:56.217Z,14.70
2023-02-14T06:51:27.647Z,11.80
2023-02-14T06:53:59.527Z,15.50
2023-02-14T06:56:29.821Z,15.10
2023-02-14T06:58:58.980Z,11.90
2023-02-14T07:01:36.968Z,15.80
2023-02-14T07:04:06.529Z,14.40
2023-02-14T07:06:40.566Z,17.40
2023-02-14T07:09:10.338Z,14.70
2023-02-14T07:11:41.907Z,14.20
2023-02-14T07:14:17.831Z,15.20
2023-02-14T07:16:54.649Z,15.70
2023-02-14T07:19:28.554Z,13.50
2023-02-14T07:22:03.965Z,13.40
2023-02-14T07:24:37.682Z,13.60
2023-02-14T07:27:11.609Z,14.50
2023-02-14T07:29:41.431Z,14.20
2023-02-14T07:32:17.847Z,13.40
2023-02-14T07:34:57.509Z,12.60
2023-02-14T07:37:26.890Z,13.30
2023-02-14T07:40:00.868Z,17.70
2023-02-14T07:42:32.382Z,14.00
2023-02-14T07:45:21.268Z,14.50
2023-02-14T07:48:06.023Z,19.70
2023-02-14T07:50:36.448Z,12.00
2023-02-14T07:53:20.075Z,18.50
2023-02-14T07:55:53.756Z,10.90
2023-02-14T07:58:27.110Z,13.50
2023-02-14T08:01:00.891Z,9.40
2023-02-14T08:03:35.176Z,19.00
2023-02-14T08:06:05.267Z,14.40
2023-02-14T08:08:36.446Z,15.90
2023-02-14T08:11:05.888Z,15.20
2023-02-14T08:13:39.462Z,14.40
2023-02-14T08:16:16.295Z,14.90
2023-02-14T08:18:50.774Z,12.20
2023-02-14T08:21:33.836Z,15.80
2023-02-14T08:24:04.391Z,12.90
2023-02-14T08:26:44.493Z,13.60
2023-02-14T08:29:16.793Z,14.50
2023-02-14T08:32:00.624Z,12.20
2023-02-14T08:34:45.028Z,16.10
2023-02-14T08:37:17.677Z,12.00
2023-02-14T08:39:51.972Z,14.20
2023-02-14T08:44:53.732Z,13.40
2023-02-14T08:47:26.100Z,13.40
2023-02-14T08:50:03.672Z,16.90
2023-02-14T08:52:34.595Z,16.50
2023-02-14T08:55:20.313Z,17.70
2023-02-14T08:58:05.964Z,16.80
2023-02-14T09:00:36.454Z,10.30
2023-02-14T09:03:11.010Z,12.10
2023-02-14T09:05:44.622Z,14.40
2023-02-14T09:08:27.027Z,15.50
2023-02-14T09:11:23.790Z,13.30
2023-02-14T09:14:00.123Z,12.50
2023-02-14T09:19:15.166Z,14.70
2023-02-14T09:21:45.299Z,11.20
2023-02-14T09:24:22.868Z,15.50
2023-02-14T09:27:01.830Z,15.00
2023-02-14T09:29:39.464Z,13.70
2023-02-14T09:32:11.776Z,12.90
2023-02-14T09:34:49.718Z,18.30
2023-02-14T09:37:37.560Z,17.10
2023-02-14T09:40:23.570Z,15.10
2023-02-14T09:43:16.628Z,13.60
2023-02-14T09:46:06.845Z,13.50
2023-02-14T09:48:49.969Z,12.80
2023-02-14T09:51:40.704Z,14.40
2023-02-14T09:54:23.921Z,15.10
2023-02-14T09:57:03.772Z,11.30
2023-02-14T10:00:03.361Z,13.00
2023-02-14T10:02:41.019Z,12.60
2023-02-14T10:05:56.620Z,15.20
2023-02-14T10:08:47.615Z,9.90
2023-02-14T10:14:08.002Z,16.50
2023-02-14T10:17:13.546Z,15.10
2023-02-14T10:19:59.830Z,11.80
2023-02-14T10:23:00.215Z,11.70
2023-02-14T10:25:48.634Z,15.00
2023-02-14T10:28:46.094Z,12.90
2023-02-14T10:31:28.330Z,14.30
2023-02-14T10:34:25.039Z,15.60
2023-02-14T10:37:30.041Z,15.80
2023-02-14T10:40:43.280Z,18.70
2023-02-14T10:43:46.529Z,14.70
2023-02-14T10:46:18.355Z,14.70
2023-02-14T10:49:18.793Z,19.90
2023-02-14T10:52:19.819Z,9.80
2023-02-14T10:55:13.890Z,15.70
2023-02-14T10:58:01.412Z,14.80
2023-02-14T11:00:50.199Z,14.00
2023-02-14T11:03:34.293Z,11.60
2023-02-14T11:06:16.656Z,14.70
2023-02-14T11:08:46.286Z,13.30
2023-02-14T11:11:49.843Z,15.80
2023-02-14T11:14:33.208Z,13.20
2023-02-14T11:17:34.914Z,14.60
2023-02-14T11:20:30.704Z,16.60
2023-02-14T11:23:25.663Z,17.20
2023-02-14T11:26:04.574Z,18.90
2023-02-14T11:28:53.841Z,15.10
2023-02-14T11:31:46.066Z,15.40
2023-02-14T11:34:37.203Z,14.50
2023-02-14T11:37:23.413Z,13.30
2023-02-14T11:40:02.687Z,14.70
2023-02-14T11:42:51.610Z,17.50
2023-02-14T11:45:36.757Z,14.30
2023-02-14T11:48:35.208Z,16.50
2023-02-14T11:51:15.049Z,8.70
2023-02-14T11:53:57.427Z,11.00
2023-02-14T11:56:56.810Z,12.10
2023-02-14T11:59:40.677Z,11.40
2023-02-14T12:02:28.277Z,13.10
2023-02-14T12:05:28.427Z,12.90
2023-02-14T12:08:04.666Z,11.70
2023-02-14T12:10:42.707Z,13.40
2023-02-14T12:13:12.322Z,13.10
2023-02-14T12:15:45.160Z,9.90
2023-02-14T12:18:58.921Z,12.70
2023-02-14T12:22:04.522Z,12.80
2023-02-14T12:25:10.974Z,13.30
2023-02-14T12:27:50.969Z,13.20
2023-02-14T12:30:39.153Z,11.60
2023-02-14T12:33:25.234Z,11.70
2023-02-14T12:36:13.282Z,12.30
2023-02-14T12:39:21.749Z,12.10
2023-02-14T12:42:08.234Z,16.80
2023-02-14T12:44:54.777Z,10.20
2023-02-14T12:48:07.322Z,10.60
2023-02-14T12:51:12.986Z,12.50
2023-02-14T12:54:02.539Z,13.40
2023-02-14T12:56:59.400Z,12.40
2023-02-14T13:00:03.764Z,11.60
2023-02-14T13:03:50.142Z,12.50
2023-02-14T13:06:39.899Z,11.50
2023-02-14T13:10:12.881Z,9.20
2023-02-14T13:13:37.156Z,10.50
2023-02-14T13:16:35.685Z,16.00
2023-02-14T13:20:07.058Z,13.90
2023-02-14T13:22:44.277Z,12.40
2023-02-14T13:25:41.232Z,17.80
2023-02-14T13:28:20.489Z,15.50
2023-02-14T13:30:59.899Z,11.80
2023-02-14T13:33:41.956Z,13.40
2023-02-14T13:36:14.002Z,8.00
2023-02-14T13:38:51.962Z,8.90
2023-02-14T13:41:32.437Z,12.80
2023-02-14T13:44:09.112Z,10.40
2023-02-14T13:46:56.521Z,14.30
2023-02-14T13:49:57.122Z,11.70
2023-02-14T13:52:55.961Z,14.90
2023-02-14T13:55:37.009Z,11.60
2023-02-14T13:58:26.333Z,10.70
2023-02-14T14:01:33.923Z,9.20
2023-02-14T14:04:27.334Z,11.50
2023-02-14T14:07:05.504Z,9.90
2023-02-14T14:09:44.296Z,13.70
2023-02-14T14:12:28.990Z,11.00
2023-02-14T14:15:07.021Z,11.70
2023-02-14T14:17:46.700Z,12.00
2023-02-14T14:20:16.568Z,12.90
2023-02-14T14:22:58.992Z,9.90
2023-02-14T14:25:37.928Z,14.10
2023-02-14T14:28:22.514Z,11.90
2023-02-14T14:30:53.325Z,11.70
2023-02-14T14:33:28.387Z,16.70
2023-02-14T14:36:08.153Z,15.50
2023-02-14T14:38:54.909Z,15.50
2023-02-14T14:41:32.998Z,16.20
2023-02-14T14:44:16.694Z,13.50
2023-02-14T14:47:03.107Z,12.80
2023-02-14T14:49:39.184Z,13.30
2023-02-14T14:52:36.556Z,16.50
2023-02-14T14:55:11.219Z,15.00
2023-02-14T14:57:43.032Z,16.60
2023-02-14T15:00:31.002Z,15.20
2023-02-14T15:03:12.304Z,13.70
2023-02-14T15:05:53.389Z,14.60
2023-02-14T15:08:25.481Z,15.10
2023-02-14T15:11:09.638Z,13.80
2023-02-14T15:13:55.414Z,10.30
2023-02-14T15:16:35.964Z,11.60
2023-02-14T15:19:11.304Z,12.20
2023-02-14T15:21:44.517Z,11.90
2023-02-14T15:24:18.402Z,13.80
2023-02-14T15:26:52.013Z,13.80
2023-02-14T15:29:30.044Z,12.50
2023-02-14T15:32:03.443Z,13.20
2023-02-14T15:34:36.532Z,15.40
2023-02-14T15:37:07.350Z,15.30
2023-02-14T15:39:49.762Z,19.70
2023-02-14T15:42:33.194Z,15.00
2023-02-14T15:45:24.248Z,16.60
2023-02-14T15:48:06.917Z,14.90
2023-02-14T15:50:46.174Z,16.40
2023-02-14T15:53:46.108Z,16.50
2023-02-14T15:56:30.938Z,17.80
2023-02-14T15:59:20.579Z,14.00
2023-02-14T16:02:06.644Z,16.50
2023-02-14T16:04:57.398Z,15.00
2023-02-14T16:07:30.160Z,15.00
2023-02-14T16:10:24.832Z,16.10
2023-02-14T16:13:14.520Z,14.40
2023-02-14T16:16:21.014Z,10.00
2023-02-14T16:18:59.751Z,12.60
2023-02-14T16:21:35.240Z,11.30
2023-02-14T16:24:07.885Z,13.60
2023-02-14T16:26:54.635Z,12.50
2023-02-14T16:29:28.777Z,10.50
2023-02-14T16:32:16.544Z,13.10
2023-02-14T16:34:52.257Z,14.70
2023-02-14T16:37:36.782Z,10.20
2023-02-14T16:40:15.240Z,11.80
2023-02-14T16:42:46.042Z,11.70
2023-02-14T16:45:22.871Z,12.80
2023-02-14T16:47:53.914Z,11.40
2023-02-14T16:50:23.798Z,14.80
2023-02-14T16:53:01.848Z,15.00
2023-02-14T16:55:35.942Z,16.20
2023-02-14T16:58:05.757Z,10.60
2023-02-14T17:00:37.298Z,14.10
2023-02-14T17:05:42.828Z,15.10
2023-02-14T17:08:16.398Z,16.30
2023-02-14T17:10:52.599Z,19.20
2023-02-14T17:13:28.125Z,17.60
2023-02-14T17:15:58.278Z,16.50
2023-02-14T17:18:31.457Z,17.10
2023-02-14T17:21:06.984Z,17.50
2023-02-14T17:23:44.793Z,15.40
2023-02-14T17:26:14.758Z,19.00
2023-02-14T17:28:51.114Z,15.30
2023-02-14T17:31:21.058Z,14.00
2023-02-14T17:33:53.453Z,9.80
2023-02-14T17:36:24.991Z,14.00
2023-02-14T17:38:55.483Z,14.30
2023-02-14T17:41:35.473Z,11.70
2023-02-14T17:44:13.812Z,9.00
2023-02-14T17:46:43.554Z,17.60
2023-02-14T17:49:16.757Z,11.10
2023-02-14T17:51:56.679Z,15.90
2023-02-14T17:54:27.871Z,16.80
2023-02-14T17:56:57.363Z,15.70
2023-02-14T17:59:26.997Z,17.60
2023-02-14T18:02:04.371Z,13.40
2023-02-14T18:04:37.713Z,11.90
2023-02-14T18:07:12.891Z,15.00
2023-02-14T18:09:43.870Z,10.90
2023-02-14T18:12:25.365Z,13.70
2023-02-14T18:15:00.238Z,9.10
2023-02-14T18:17:30.627Z,13.20
2023-02-14T18:20:08.465Z,9.00
2023-02-14T18:22:44.050Z,12.20
2023-02-14T18:25:22.275Z,12.00
2023-02-14T18:27:53.904Z,12.90
2023-02-14T18:30:29.192Z,10.90
2023-02-14T18:33:01.135Z,11.40
2023-02-14T18:35:31.100Z,11.00
2023-02-14T18:38:03.594Z,12.90
2023-02-14T18:40:36.528Z,11.90
2023-02-14T18:43:06.330Z,12.60
2023-02-14T18:45:41.773Z,11.20
2023-02-14T18:48:11.492Z,12.80
2023-02-14T18:50:42.470Z,10.90
2023-02-14T18:53:13.092Z,12.10
2023-02-14T18:55:43.055Z,9.80
2023-02-14T18:58:12.984Z,12.40
2023-02-14T19:00:44.522Z,13.80
2023-02-14T19:03:15.688Z,8.50
2023-02-14T19:05:46.670Z,12.30
2023-02-14T19:08:16.772Z,9.10
2023-02-14T19:10:47.268Z,10.40
2023-02-14T19:13:16.820Z,12.60
2023-02-14T19:15:49.754Z,10.90
2023-02-14T19:18:22.810Z,13.00
2023-02-14T19:20:56.223Z,11.40
2023-02-14T19:23:25.544Z,12.80
2023-02-14T19:25:55.043Z,12.60
2023-02-14T19:28:28.766Z,13.90
2023-02-14T19:31:00.064Z,13.60
2023-02-14T19:33:31.187Z,11.80
2023-02-14T19:36:06.850Z,11.30
2023-02-14T19:38:36.467Z,11.00
2023-02-14T19:41:26.983Z,16.70
2023-02-14T19:44:03.497Z,10.30
2023-02-14T19:46:35.608Z,14.70
2023-02-14T19:49:07.119Z,10.60
2023-02-14T19:51:37.261Z,9.90
2023-02-14T19:54:13.372Z,12.40
2023-02-14T19:56:47.248Z,12.50
2023-02-14T19:59:20.630Z,11.70
2023-02-14T20:01:54.526Z,10.30
2023-02-14T20:04:31.416Z,10.50
2023-02-14T20:07:02.964Z,11.80
2023-02-14T20:09:33.114Z,15.00
2023-02-14T20:12:05.062Z,11.00
2023-02-14T20:14:50.850Z,11.60
2023-02-14T20:17:26.952Z,12.90
2023-02-14T20:19:57.191Z,17.50
2023-02-14T20:22:29.330Z,10.40
2023-02-14T20:24:59.258Z,12.60
2023-02-14T20:27:28.649Z,11.70
2023-02-14T20:29:59.427Z,14.60
2023-02-14T20:32:29.373Z,15.70
2023-02-14T20:34:59.796Z,14.50
2023-02-14T20:37:30.292Z,12.70
2023-02-14T20:40:02.109Z,13.30
2023-02-14T20:42:33.018Z,13.10
2023-02-14T20:45:03.047Z,15.60
2023-02-14T20:47:32.360Z,14.90
2023-02-14T20:50:01.870Z,13.40
2023-02-14T20:52:38.609Z,11.80
2023-02-14T20:55:09.599Z,14.20
2023-02-14T20:57:40.829Z,12.90
2023-02-14T21:00:11.370Z,10.10
2023-02-14T21:02:41.689Z,10.80
2023-02-14T21:05:11.741Z,14.90
2023-02-14T21:07:41.162Z,13.10
2023-02-14T21:10:11.292Z,12.70
2023-02-14T21:12:40.780Z,15.20
2023-02-14T21:15:24.841Z,10.70
2023-02-14T21:17:59.244Z,15.20
2023-02-14T21:20:33.971Z,14.60
2023-02-14T21:23:03.292Z,12.70
2023-02-14T21:25:35.657Z,16.30
2023-02-14T21:28:05.956Z,12.60
2023-02-14T21:30:39.491Z,12.90
2023-02-14T21:33:09.193Z,13.50
2023-02-14T21:35:42.087Z,14.70
2023-02-14T21:38:28.446Z,12.40
2023-02-14T21:41:17.551Z,11.30
2023-02-14T21:44:04.699Z,15.00
2023-02-14T21:46:44.314Z,13.60
2023-02-14T21:49:39.911Z,15.70
2023-02-14T21:52:12.028Z,14.30
2023-02-14T21:54:49.522Z,14.10
2023-02-14T21:57:29.297Z,15.30
2023-02-14T22:00:12.377Z,13.20
2023-02-14T22:02:45.243Z,12.20
2023-02-14T22:05:19.284Z,16.80
2023-02-14T22:07:54.474Z,14.00
2023-02-14T22:10:33.162Z,15.30
2023-02-14T22:13:07.766Z,13.40
2023-02-14T22:15:42.438Z,15.10
2023-02-14T22:18:16.713Z,16.50
2023-02-14T22:20:53.061Z,15.20
2023-02-14T22:23:45.815Z,15.60
2023-02-14T22:26:29.928Z,12.80
2023-02-14T22:29:25.095Z,16.40
2023-02-14T22:32:04.082Z,14.00
2023-02-14T22:37:32.339Z,15.70
2023-02-14T22:40:11.611Z,18.20
2023-02-14T22:42:48.457Z,15.80
2023-02-14T22:45:23.161Z,18.20
2023-02-14T22:47:53.133Z,15.90
2023-02-14T22:50:28.681Z,18.70
2023-02-14T22:52:59.432Z,16.90
2023-02-14T22:55:34.050Z,14.00
2023-02-14T22:58:07.578Z,14.00
2023-02-14T23:00:50.401Z,13.80
2023-02-14T23:03:22.599Z,18.20
2023-02-14T23:05:59.400Z,17.60
2023-02-14T23:08:34.668Z,15.30
2023-02-14T23:11:27.089Z,13.40
2023-02-14T23:14:52.079Z,17.60
2023-02-14T23:17:50.029Z,19.40
2023-02-14T23:20:38.198Z,17.60
2023-02-14T23:23:07.828Z,14.80
2023-02-14T23:25:46.740Z,14.00
2023-02-14T23:28:22.144Z,15.70
2023-02-14T23:31:05.785Z,14.40
2023-02-14T23:33:39.682Z,13.40
2023-02-14T23:36:13.734Z,16.40
2023-02-14T23:38:50.851Z,13.20
2023-02-14T23:41:44.110Z,14.40
2023-02-14T23:44:31.273Z,15.40
2023-02-14T23:47:19.015Z,13.20
2023-02-14T23:49:48.742Z,14.00
2023-02-14T23:52:22.383Z,15.30
2023-02-14T23:54:55.892Z,14.30
2023-02-14T23:57:30.617Z,17.80
